Time;durP1;ratioP1;P1;durP2;ratioP2;P2;SDS_P1;SDS_P2;PMS_P1;PMS_P2;Temp;Humidity;BMP_temperature;BMP_pressure;BME280_temperature;BME280_humidity;BME280_pressure;Samples;Min_cycle;Max_cycle;Signal;HPM_P1;HPM_P2
2024/04/20 00:01:09;;;;;;;12.52;1.83;;;6.90;99.90;;;;;;5488569;26;20070;-43
2024/04/20 00:03:34;;;;;;;29.35;2.83;;;6.90;99.90;;;;;;5492076;26;20004;-42
2024/04/20 00:06:06;;;;;;;15.07;1.77;;;6.90;99.90;;;;;;5487747;26;19998;-42
2024/04/20 00:08:32;;;;;;;14.88;2.30;;;7.00;99.90;;;;;;5487888;26;20009;-41
2024/04/20 00:11:05;;;;;;;12.60;2.55;;;7.00;99.90;;;;;;5488405;26;20006;-49
2024/04/20 00:13:31;;;;;;;7.72;2.53;;;7.00;99.90;;;;;;5488487;26;19998;-55
2024/04/20 00:15:57;;;;;;;14.60;2.47;;;6.90;99.90;;;;;;5488324;26;19998;-55
2024/04/20 00:18:22;;;;;;;16.75;1.75;;;7.00;99.90;;;;;;5456125;26;20009;-55
2024/04/20 00:20:48;;;;;;;12.60;2.08;;;7.00;99.90;;;;;;5489160;26;20002;-56
2024/04/20 00:23:13;;;;;;;6.97;1.40;;;7.00;99.90;;;;;;5487816;26;19998;-55
2024/04/20 00:25:39;;;;;;;16.92;2.08;;;7.10;99.90;;;;;;5488109;26;20447;-56
2024/04/20 00:28:05;;;;;;;15.65;2.28;;;7.00;99.90;;;;;;5487780;26;20002;-56
2024/04/20 00:30:31;;;;;;;13.55;2.13;;;7.00;99.90;;;;;;5487995;26;20006;-55
2024/04/20 00:32:57;;;;;;;8.73;1.95;;;7.00;99.90;;;;;;5487996;26;20348;-55
2024/04/20 00:35:23;;;;;;;20.10;2.08;;;6.90;99.90;;;;;;5488063;26;20331;-57
2024/04/20 00:37:49;;;;;;;25.60;2.67;;;7.00;99.90;;;;;;5498124;26;20466;-55
2024/04/20 00:40:15;;;;;;;13.38;1.50;;;7.00;99.90;;;;;;5496815;26;19998;-55
2024/04/20 00:42:43;;;;;;;8.43;1.65;;;7.00;99.90;;;;;;5487828;26;20009;-67
2024/04/20 00:45:09;;;;;;;14.10;2.05;;;7.00;99.90;;;;;;5487733;26;20002;-54
2024/04/20 00:47:37;;;;;;;14.88;1.65;;;7.00;99.90;;;;;;5487926;26;20009;-55
2024/04/20 00:50:04;;;;;;;22.63;1.92;;;7.00;99.90;;;;;;5449148;26;20013;-54
2024/04/20 00:52:31;;;;;;;8.63;1.30;;;7.00;99.90;;;;;;5479036;26;20485;-55
2024/04/20 00:54:58;;;;;;;11.70;1.98;;;7.00;99.90;;;;;;5500174;26;20011;-55
2024/04/20 00:57:26;;;;;;;24.98;2.22;;;7.00;99.90;;;;;;5505482;26;20446;-53
2024/04/20 00:59:52;;;;;;;12.23;1.10;;;7.00;99.90;;;;;;5487770;26;20022;-57
2024/04/20 01:02:19;;;;;;;12.80;2.00;;;7.00;99.90;;;;;;5487372;26;20009;-55
2024/04/20 01:04:45;;;;;;;18.67;2.25;;;7.00;99.90;;;;;;5486224;26;20442;-54
2024/04/20 01:07:11;;;;;;;15.77;1.58;;;7.00;99.90;;;;;;5487281;26;20006;-53
2024/04/20 01:09:37;;;;;;;12.60;1.38;;;7.00;99.90;;;;;;5455518;26;20336;-56
2024/04/20 01:12:03;;;;;;;19.25;2.47;;;7.00;99.90;;;;;;5450177;26;19994;-56
2024/04/20 01:14:29;;;;;;;20.15;2.15;;;7.00;99.90;;;;;;5470065;26;20520;-52
2024/04/20 01:16:55;;;;;;;14.70;1.77;;;7.00;99.90;;;;;;5486760;26;20010;-56
2024/04/20 01:19:24;;;;;;;10.95;1.55;;;6.90;99.90;;;;;;5486311;26;20070;-55
2024/04/20 01:21:51;;;;;;;11.85;2.10;;;6.90;99.90;;;;;;5488982;26;20443;-51
2024/04/20 01:24:21;;;;;;;9.55;1.58;;;7.00;99.90;;;;;;5485402;26;20009;-56
2024/04/20 01:26:47;;;;;;;14.75;2.33;;;7.00;99.90;;;;;;5490740;26;19998;-55
2024/04/20 01:29:12;;;;;;;12.10;3.05;;;7.00;99.90;;;;;;5491968;26;19990;-55
2024/04/20 01:31:38;;;;;;;12.43;1.65;;;7.00;99.90;;;;;;5490390;26;20384;-56
2024/04/20 01:34:04;;;;;;;13.35;1.75;;;7.00;99.90;;;;;;5490674;26;20070;-55
2024/04/20 01:36:29;;;;;;;11.98;1.52;;;7.00;99.90;;;;;;5490670;26;19994;-53
2024/04/20 01:38:56;;;;;;;10.45;1.45;;;7.00;99.90;;;;;;5490620;26;20504;-55
2024/04/20 01:41:22;;;;;;;8.30;2.13;;;7.00;99.90;;;;;;5490885;26;20013;-55
2024/04/20 01:43:47;;;;;;;12.13;1.25;;;7.00;99.90;;;;;;5490529;26;19990;-67
2024/04/20 01:46:13;;;;;;;12.48;1.13;;;7.00;99.90;;;;;;5453339;26;20005;-55
2024/04/20 01:48:39;;;;;;;9.85;1.48;;;7.00;99.90;;;;;;5476104;26;20002;-53
2024/04/20 01:51:04;;;;;;;5.45;1.27;;;7.00;99.90;;;;;;5490568;26;19998;-52
2024/04/20 01:53:30;;;;;;;8.43;1.50;;;7.00;99.90;;;;;;5490714;26;20066;-54
2024/04/20 01:55:56;;;;;;;6.30;1.27;;;7.00;99.90;;;;;;5458250;26;19990;-54
2024/04/20 01:58:21;;;;;;;3.20;1.17;;;7.10;99.90;;;;;;5490329;26;20005;-55
2024/04/20 02:00:47;;;;;;;19.25;2.03;;;7.10;99.90;;;;;;5490603;26;20000;-56
2024/04/20 02:03:13;;;;;;;8.90;1.23;;;7.10;99.90;;;;;;5506816;26;20005;-54
2024/04/20 02:05:39;;;;;;;18.98;2.47;;;7.10;99.90;;;;;;5505136;26;20411;-56
2024/04/20 02:08:05;;;;;;;8.00;1.45;;;7.00;99.90;;;;;;5490201;26;19990;-55
2024/04/20 02:10:31;;;;;;;8.93;1.35;;;7.10;99.90;;;;;;5490238;26;20005;-52
2024/04/20 02:12:56;;;;;;;10.70;1.33;;;7.10;99.90;;;;;;5486281;26;20463;-55
2024/04/20 02:15:23;;;;;;;10.75;2.03;;;7.10;99.90;;;;;;5489831;26;19994;-53
2024/04/20 02:17:49;;;;;;;29.92;3.25;;;7.10;99.90;;;;;;5509159;26;20005;-55
2024/04/20 02:20:15;;;;;;;18.88;1.80;;;7.00;99.90;;;;;;5526850;26;19993;-55
2024/04/20 02:22:40;;;;;;;13.68;1.48;;;7.10;99.90;;;;;;5503546;26;19998;-54
2024/04/20 02:25:06;;;;;;;9.27;1.48;;;7.10;99.90;;;;;;5480294;26;20009;-53
2024/04/20 02:27:32;;;;;;;11.77;1.90;;;7.00;99.90;;;;;;5489632;26;20005;-56
2024/04/20 02:29:58;;;;;;;19.33;2.28;;;7.00;99.90;;;;;;5497272;26;20009;-55
2024/04/20 02:32:23;;;;;;;9.55;1.35;;;7.10;99.90;;;;;;5508535;26;20026;-40
2024/04/20 02:34:49;;;;;;;12.88;2.35;;;7.10;99.90;;;;;;5514941;26;20025;-40
2024/04/20 02:37:14;;;;;;;11.05;1.90;;;7.10;99.90;;;;;;5526639;26;20001;-42
2024/04/20 02:39:40;;;;;;;14.98;1.67;;;7.10;99.90;;;;;;5500940;26;20002;-40
2024/04/20 02:42:07;;;;;;;17.13;1.88;;;7.10;99.90;;;;;;5489760;26;20037;-39
2024/04/20 02:44:33;;;;;;;18.38;2.92;;;7.10;99.90;;;;;;5489869;26;20070;-41
2024/04/20 02:46:59;;;;;;;10.10;1.60;;;7.10;99.90;;;;;;5489883;26;20018;-39
2024/04/20 02:49:25;;;;;;;25.38;3.47;;;7.10;99.90;;;;;;5489543;26;20067;-41
2024/04/20 02:51:51;;;;;;;11.48;2.33;;;7.10;99.90;;;;;;5457692;26;20338;-40
2024/04/20 02:54:17;;;;;;;8.38;0.88;;;7.00;99.90;;;;;;5489187;26;20435;-41
2024/04/20 02:56:43;;;;;;;19.00;1.83;;;7.00;99.90;;;;;;5489486;26;19994;-43
2024/04/20 02:59:08;;;;;;;14.05;1.60;;;6.90;99.90;;;;;;5489537;26;20022;-41
2024/04/20 03:01:34;;;;;;;11.90;1.58;;;6.90;99.90;;;;;;5489344;26;20009;-39
2024/04/20 03:04:00;;;;;;;21.27;1.55;;;6.80;99.90;;;;;;5489521;26;19994;-39
2024/04/20 03:06:26;;;;;;;27.00;2.65;;;6.90;99.90;;;;;;5457376;26;20066;-40
2024/04/20 03:08:51;;;;;;;14.55;1.83;;;6.80;99.90;;;;;;5457310;26;20002;-40
2024/04/20 03:11:17;;;;;;;15.52;1.77;;;6.80;99.90;;;;;;5488876;26;20005;-44
2024/04/20 03:13:43;;;;;;;12.40;2.10;;;6.90;99.90;;;;;;5489615;26;20066;-44
2024/04/20 03:16:08;;;;;;;16.77;2.17;;;6.90;99.90;;;;;;5456342;26;20001;-40
2024/04/20 03:18:35;;;;;;;14.50;1.95;;;6.90;99.90;;;;;;5489129;26;20008;-41
2024/04/20 03:21:05;;;;;;;30.20;2.72;;;7.00;99.90;;;;;;5488959;26;20005;-39
2024/04/20 03:23:33;;;;;;;15.27;2.35;;;7.00;99.90;;;;;;5456946;26;19998;-39
2024/04/20 03:25:58;;;;;;;;;;;6.90;99.90;;;;;;5457843;26;20002;-41
2024/04/20 03:28:24;;;;;;;14.93;1.65;;;7.00;99.90;;;;;;5489111;26;20293;-45
2024/04/20 03:30:50;;;;;;;6.90;1.27;;;7.00;99.90;;;;;;5488822;26;20006;-39
2024/04/20 03:33:18;;;;;;;6.90;0.88;;;7.00;99.90;;;;;;5488812;26;20008;-39
2024/04/20 03:35:43;;;;;;;8.98;1.15;;;7.00;99.90;;;;;;5488972;26;20002;-42
2024/04/20 03:38:09;;;;;;;16.90;1.45;;;7.00;99.90;;;;;;5489262;26;20316;-39
2024/04/20 03:40:35;;;;;;;6.03;1.77;;;7.00;99.90;;;;;;5488528;26;19994;-40
2024/04/20 03:43:00;;;;;;;10.70;1.90;;;7.10;99.90;;;;;;5487750;26;20509;-39
2024/04/20 03:45:26;;;;;;;6.93;1.98;;;7.10;99.90;;;;;;5488883;26;19994;-41
2024/04/20 03:47:51;;;;;;;13.45;1.20;;;7.10;99.90;;;;;;5488747;26;20525;-41
2024/04/20 03:50:18;;;;;;;8.48;1.33;;;7.00;99.90;;;;;;5488633;26;20331;-39
2024/04/20 03:52:47;;;;;;;6.57;1.30;;;7.10;99.90;;;;;;5456564;26;19990;-39
2024/04/20 03:55:14;;;;;;;12.63;1.38;;;7.10;99.90;;;;;;5488376;26;20537;-65
2024/04/20 03:57:39;;;;;;;8.57;1.25;;;7.10;99.90;;;;;;5488834;26;19998;-40
2024/04/20 04:00:07;;;;;;;9.32;1.30;;;7.00;99.90;;;;;;5488247;26;20342;-39
2024/04/20 04:02:33;;;;;;;13.20;1.67;;;7.00;99.90;;;;;;5488644;26;20335;-39
2024/04/20 04:04:58;;;;;;;11.77;1.92;;;7.00;99.90;;;;;;5455792;26;20006;-39
2024/04/20 04:07:24;;;;;;;16.17;1.75;;;7.00;99.90;;;;;;5488520;26;20062;-44
2024/04/20 04:09:49;;;;;;;12.27;1.50;;;7.10;99.90;;;;;;5488276;26;20012;-40
2024/04/20 04:12:15;;;;;;;15.25;1.55;;;7.10;99.90;;;;;;5488077;26;19998;-46
2024/04/20 04:14:41;;;;;;;11.00;2.28;;;7.10;99.90;;;;;;5459164;26;20331;-40
2024/04/20 04:17:06;;;;;;;5.65;1.10;;;7.10;99.90;;;;;;5453082;26;20013;-39
2024/04/20 04:19:32;;;;;;;12.02;1.67;;;7.10;99.90;;;;;;5488035;26;19994;-39
2024/04/20 04:21:59;;;;;;;8.48;1.80;;;7.10;99.90;;;;;;5487750;26;20002;-40
2024/04/20 04:24:25;;;;;;;10.20;1.83;;;7.10;99.90;;;;;;5488550;26;20009;-40
2024/04/20 04:26:51;;;;;;;14.60;1.30;;;7.10;99.90;;;;;;5488063;26;20546;-40
2024/04/20 04:29:17;;;;;;;10.18;1.38;;;7.10;99.90;;;;;;5488034;26;20010;-41
2024/04/20 04:31:43;;;;;;;16.27;2.15;;;7.10;99.90;;;;;;5455937;26;20474;-39
2024/04/20 04:34:09;;;;;;;11.20;1.40;;;7.20;99.90;;;;;;5488386;26;20527;-43
2024/04/20 04:36:35;;;;;;;5.35;0.75;;;7.10;99.90;;;;;;5488037;26;20002;-41
2024/04/20 04:39:02;;;;;;;9.10;2.40;;;7.10;99.90;;;;;;5487530;26;20009;-61
2024/04/20 04:41:27;;;;;;;14.45;1.40;;;7.20;99.90;;;;;;5487530;26;20002;-41
2024/04/20 04:43:53;;;;;;;7.05;1.60;;;7.10;99.90;;;;;;5487848;26;20009;-40
2024/04/20 04:46:19;;;;;;;13.73;1.05;;;7.10;99.90;;;;;;5488443;26;20475;-41
2024/04/20 04:48:44;;;;;;;8.32;1.88;;;7.10;99.90;;;;;;5487868;26;20013;-42
2024/04/20 04:51:10;;;;;;;5.95;1.05;;;7.10;99.90;;;;;;5487790;26;20459;-42
2024/04/20 04:53:35;;;;;;;9.25;0.77;;;7.10;99.90;;;;;;5488733;26;19998;-55
2024/04/20 04:56:01;;;;;;;5.28;0.73;;;7.10;99.90;;;;;;5490690;26;19998;-55
2024/04/20 04:58:27;;;;;;;10.57;0.88;;;7.10;99.90;;;;;;5491253;26;19995;-54
2024/04/20 05:00:52;;;;;;;8.95;1.30;;;7.10;99.90;;;;;;5490951;26;19998;-54
2024/04/20 05:03:18;;;;;;;11.48;1.42;;;7.10;99.90;;;;;;5458466;26;20034;-54
2024/04/20 05:05:48;;;;;;;6.05;0.82;;;7.10;99.90;;;;;;5491165;26;20006;-55
2024/04/20 05:08:14;;;;;;;16.38;1.05;;;7.10;99.90;;;;;;5491068;26;20006;-55
2024/04/20 05:10:39;;;;;;;12.23;1.45;;;7.10;99.90;;;;;;5490870;26;20417;-55
2024/04/20 05:13:05;;;;;;;9.80;1.85;;;7.10;99.90;;;;;;5490843;26;20009;-54
2024/04/20 05:15:31;;;;;;;12.73;2.25;;;7.10;99.90;;;;;;5491073;26;19998;-53
2024/04/20 05:17:57;;;;;;;13.10;1.77;;;7.10;99.90;;;;;;5490935;26;19998;-55
2024/04/20 05:20:23;;;;;;;7.93;1.70;;;7.10;99.90;;;;;;5490401;26;19995;-53
2024/04/20 05:22:49;;;;;;;8.38;1.38;;;7.20;99.90;;;;;;5490870;26;20024;-51
2024/04/20 05:25:15;;;;;;;3.30;0.52;;;7.20;99.90;;;;;;5490757;26;20008;-55
2024/04/20 05:27:41;;;;;;;6.63;1.67;;;7.20;99.90;;;;;;5490906;26;19994;-55
2024/04/20 05:30:07;;;;;;;12.98;1.40;;;7.20;99.90;;;;;;5490356;26;20078;-52
2024/04/20 05:32:32;;;;;;;5.80;1.08;;;7.20;99.90;;;;;;5491021;26;19998;-55
2024/04/20 05:34:58;;;;;;;9.38;1.17;;;7.20;99.90;;;;;;5490824;26;20009;-55
2024/04/20 05:37:24;;;;;;;6.93;1.13;;;7.20;99.90;;;;;;5490809;26;20349;-55
2024/04/20 05:39:49;;;;;;;6.68;1.30;;;7.20;99.90;;;;;;5490351;26;20010;-51
2024/04/20 05:42:15;;;;;;;9.45;2.10;;;7.20;99.90;;;;;;5490362;26;20006;-57
2024/04/20 05:44:40;;;;;;;5.50;0.70;;;7.20;99.90;;;;;;5458407;26;20074;-54
2024/04/20 05:47:06;;;;;;;14.15;1.98;;;7.20;99.90;;;;;;5490675;26;20560;-56
2024/04/20 05:49:33;;;;;;;8.82;1.20;;;7.10;99.90;;;;;;5458296;26;20075;-54
2024/04/20 05:51:59;;;;;;;10.80;3.05;;;7.10;99.90;;;;;;5490414;26;20043;-55
2024/04/20 05:54:25;;;;;;;15.80;2.03;;;7.20;99.90;;;;;;5490500;26;20465;-54
2024/04/20 05:56:50;;;;;;;7.20;1.05;;;7.20;99.90;;;;;;5490328;26;20006;-54
2024/04/20 05:59:16;;;;;;;7.38;1.00;;;7.10;99.90;;;;;;5490580;26;19998;-53
2024/04/20 06:01:41;;;;;;;14.43;1.45;;;7.10;99.90;;;;;;5490043;26;20557;-55
2024/04/20 06:04:07;;;;;;;8.77;0.90;;;7.10;99.90;;;;;;5490065;26;19994;-53
2024/04/20 06:06:33;;;;;;;8.20;1.05;;;7.20;99.90;;;;;;5489441;26;19999;-52
2024/04/20 06:08:59;;;;;;;8.02;1.58;;;7.20;99.90;;;;;;5490321;26;20005;-56
2024/04/20 06:11:25;;;;;;;13.38;1.33;;;7.10;99.90;;;;;;5489948;26;19998;-54
2024/04/20 06:13:50;;;;;;;15.15;1.33;;;7.10;99.90;;;;;;5490098;26;20009;-65
2024/04/20 06:16:16;;;;;;;12.18;1.48;;;7.20;99.90;;;;;;5490096;26;19998;-53
2024/04/20 06:18:42;;;;;;;5.00;0.98;;;7.20;99.90;;;;;;5490426;26;20451;-54
2024/04/20 06:21:07;;;;;;;9.02;1.23;;;7.20;99.90;;;;;;5489565;26;20346;-55
2024/04/20 06:23:34;;;;;;;9.55;0.90;;;7.30;99.90;;;;;;5489897;26;19999;-53
2024/04/20 06:26:00;;;;;;;3.88;0.65;;;7.30;99.90;;;;;;5489646;26;19998;-55
2024/04/20 06:28:26;;;;;;;12.85;1.00;;;7.30;99.90;;;;;;5490121;26;20088;-54
2024/04/20 06:30:53;;;;;;;7.57;0.80;;;7.40;99.90;;;;;;5485747;26;20388;-56
2024/04/20 06:33:19;;;;;;;11.85;1.35;;;7.40;99.90;;;;;;5488292;26;20537;-55
2024/04/20 06:35:44;;;;;;;7.38;1.42;;;7.30;99.90;;;;;;5489803;26;20037;-52
2024/04/20 06:38:10;;;;;;;5.05;0.80;;;7.30;99.90;;;;;;5489410;26;19998;-55
2024/04/20 06:40:36;;;;;;;2.72;0.65;;;7.20;99.90;;;;;;5457254;26;20459;-56
2024/04/20 06:43:02;;;;;;;2.80;0.77;;;7.30;99.90;;;;;;5489742;26;20005;-56
2024/04/20 06:45:28;;;;;;;3.47;0.68;;;7.40;99.90;;;;;;5490089;26;19998;-56
2024/04/20 06:47:53;;;;;;;10.52;1.50;;;7.40;99.90;;;;;;5488994;26;20372;-55
2024/04/20 06:50:19;;;;;;;9.73;1.48;;;7.40;99.90;;;;;;5489071;26;20002;-51
2024/04/20 06:52:45;;;;;;;7.55;1.13;;;7.40;99.90;;;;;;5489262;26;20070;-56
2024/04/20 06:55:11;;;;;;;4.10;1.17;;;7.40;99.90;;;;;;5487053;26;20022;-55
2024/04/20 06:57:37;;;;;;;4.40;0.90;;;7.40;99.90;;;;;;5489448;26;20467;-56
2024/04/20 07:00:04;;;;;;;6.05;1.13;;;7.50;99.90;;;;;;5489302;26;19991;-55
2024/04/20 07:02:29;;;;;;;6.63;0.88;;;7.50;99.90;;;;;;5459173;26;20390;-54
2024/04/20 07:04:55;;;;;;;6.72;0.85;;;7.50;99.90;;;;;;5452935;26;20005;-54
2024/04/20 07:07:21;;;;;;;6.28;0.88;;;7.50;99.90;;;;;;5474460;26;20009;-41
2024/04/20 07:09:49;;;;;;;15.13;1.40;;;7.40;99.90;;;;;;5514871;26;20061;-59
2024/04/20 07:12:16;;;;;;;5.68;1.52;;;7.40;99.90;;;;;;5431916;26;20413;-40
2024/04/20 07:14:42;;;;;;;7.22;0.77;;;7.30;99.90;;;;;;5489117;26;20009;-54
2024/04/20 07:17:07;;;;;;;6.63;0.52;;;7.20;99.90;;;;;;5489153;26;19994;-54
2024/04/20 07:19:33;;;;;;;9.70;1.38;;;7.20;99.90;;;;;;5485817;26;20008;-55
2024/04/20 07:21:59;;;;;;;4.15;0.90;;;7.30;99.90;;;;;;5526022;26;20457;-55
2024/04/20 07:24:25;;;;;;;4.18;0.63;;;7.40;99.90;;;;;;5526149;26;20464;-55
2024/04/20 07:26:51;;;;;;;6.75;0.70;;;7.70;99.90;;;;;;5525223;26;19993;-54
2024/04/20 07:29:17;;;;;;;8.80;0.63;;;8.00;99.90;;;;;;5490909;26;20010;-56
2024/04/20 07:31:43;;;;;;;4.47;0.60;;;8.20;99.90;;;;;;5489084;26;19995;-55
2024/04/20 07:34:08;;;;;;;6.72;0.75;;;8.40;99.90;;;;;;5488706;26;20338;-55
2024/04/20 07:36:34;;;;;;;3.83;1.13;;;8.50;99.90;;;;;;5472701;26;20008;-55
2024/04/20 07:39:00;;;;;;;9.63;0.80;;;8.60;99.90;;;;;;5489108;26;20326;-54
2024/04/20 07:41:25;;;;;;;4.25;0.80;;;8.70;99.90;;;;;;5488921;26;20005;-55
2024/04/20 07:43:51;;;;;;;6.43;0.80;;;8.80;99.90;;;;;;5485849;26;20018;-52
2024/04/20 07:46:17;;;;;;;12.88;1.70;;;8.80;99.90;;;;;;5486880;26;20021;-55
2024/04/20 07:48:44;;;;;;;3.83;0.70;;;8.80;99.90;;;;;;5449636;26;20339;-60
2024/04/20 07:51:09;;;;;;;7.85;0.98;;;8.70;99.90;;;;;;5472186;26;20034;-54
2024/04/20 07:53:35;;;;;;;6.47;0.90;;;8.80;99.90;;;;;;5488380;26;20014;-53
2024/04/20 07:56:01;;;;;;;14.20;1.40;;;8.90;99.90;;;;;;5488109;26;19994;-51
2024/04/20 07:58:26;;;;;;;9.65;0.93;;;8.90;99.90;;;;;;5488855;26;19994;-56
2024/04/20 08:00:52;;;;;;;1.70;0.40;;;9.00;99.90;;;;;;5487970;26;20005;-42
2024/04/20 08:03:18;;;;;;;7.85;1.80;;;9.10;99.90;;;;;;5488073;26;19990;-49
2024/04/20 08:05:44;;;;;;;8.50;1.27;;;9.20;99.90;;;;;;5488572;26;20001;-42
2024/04/20 08:08:10;;;;;;;7.15;1.42;;;9.30;99.90;;;;;;5488651;26;20331;-40
2024/04/20 08:10:35;;;;;;;13.05;1.33;;;9.30;99.90;;;;;;5487912;26;20058;-38
2024/04/20 08:13:01;;;;;;;15.18;1.95;;;9.30;99.90;;;;;;5485775;26;20004;-39
2024/04/20 08:15:27;;;;;;;7.28;1.25;;;9.60;99.90;;;;;;5488487;26;20456;-39
2024/04/20 08:17:52;;;;;;;7.93;1.30;;;9.50;99.90;;;;;;5489545;26;19998;-39
2024/04/20 08:20:18;;;;;;;5.22;0.80;;;9.40;99.90;;;;;;5488341;26;19994;-39
2024/04/20 08:22:43;;;;;;;9.57;1.38;;;9.50;99.90;;;;;;5488671;26;20438;-40
2024/04/20 08:25:09;;;;;;;13.38;1.50;;;9.60;99.90;;;;;;5456686;26;20006;-42
2024/04/20 08:27:35;;;;;;;8.80;2.22;;;9.50;99.90;;;;;;5488257;26;20024;-38
2024/04/20 08:30:03;;;;;;;10.88;1.65;;;9.40;99.90;;;;;;5487972;26;20009;-39
2024/04/20 08:32:28;;;;;;;2.05;0.73;;;9.50;99.90;;;;;;5490529;26;19998;-39
2024/04/20 08:34:54;;;;;;;9.93;1.17;;;9.60;99.90;;;;;;5465067;26;20394;-40
2024/04/20 08:37:20;;;;;;;5.20;0.70;;;9.60;99.90;;;;;;5488052;26;20002;-39
2024/04/20 08:39:46;;;;;;;4.25;1.05;;;9.70;99.90;;;;;;5488285;26;20002;-39
2024/04/20 08:42:34;;;;;;;6.93;1.98;;;10.00;99.90;;;;;;5455958;26;20002;-40
2024/04/20 08:45:02;;;;;;;9.00;1.65;;;10.10;99.90;;;;;;5488474;26;19994;-40
2024/04/20 08:47:30;;;;;;;;;;;10.40;99.90;;;;;;5488789;26;20507;-43
2024/04/20 08:49:57;;;;;;;8.38;1.05;;;10.60;99.90;;;;;;5488167;26;19930;-38
2024/04/20 08:52:25;;;;;;;9.55;0.90;;;10.80;99.90;;;;;;5488975;26;20031;-38
2024/04/20 08:54:51;;;;;;;;;;;10.90;99.90;;;;;;5487328;26;20005;-39
2024/04/20 08:57:18;;;;;;;7.25;1.15;;;10.90;99.90;;;;;;5466736;26;20260;-42
2024/04/20 08:59:43;;;;;;;4.45;0.93;;;10.80;99.90;;;;;;5442991;26;20522;-41
2024/04/20 09:02:17;;;;;;;12.63;2.50;;;10.20;99.90;;;;;;5487322;26;20014;-57
2024/04/20 09:04:44;;;;;;;13.07;1.75;;;9.90;99.90;;;;;;5455575;26;20466;-52
2024/04/20 09:07:10;;;;;;;3.10;0.80;;;9.80;99.90;;;;;;5472925;26;19999;-42
2024/04/20 09:09:37;;;;;;;2.40;0.93;;;9.80;99.90;;;;;;5504881;26;20010;-45
2024/04/20 09:12:04;;;;;;;7.07;1.52;;;9.90;99.90;;;;;;5487440;26;19990;-68
2024/04/20 09:14:30;;;;;;;2.72;0.88;;;9.90;99.90;;;;;;5487260;26;20043;-42
2024/04/20 09:16:56;;;;;;;8.63;1.30;;;10.50;99.90;;;;;;5487407;26;20006;-53
2024/04/20 09:19:24;;;;;;;7.03;0.95;;;10.90;99.90;;;;;;5486772;26;19994;-44
2024/04/20 09:21:50;;;;;;;6.57;0.90;;;11.20;99.90;;;;;;5487395;26;20526;-42
2024/04/20 09:24:18;;;;;;;4.20;0.95;;;11.00;99.90;;;;;;5490207;26;19994;-38
2024/04/20 09:26:50;;;;;;;9.90;1.42;;;10.60;99.90;;;;;;5515205;26;19998;-41
2024/04/20 09:29:16;;;;;;;6.10;0.98;;;10.70;99.90;;;;;;5475318;26;20448;-43
2024/04/20 09:31:57;;;;;;;8.52;1.40;;;10.60;99.90;;;;;;5474719;26;19994;-44
2024/04/20 09:34:23;;;;;;;5.30;1.20;;;10.70;99.90;;;;;;5483405;26;19994;-41
2024/04/20 09:36:50;;;;;;;6.32;1.08;;;10.90;99.90;;;;;;5457541;26;20009;-38
2024/04/20 09:39:15;;;;;;;11.27;1.60;;;10.80;99.90;;;;;;5486654;26;20042;-42
2024/04/20 09:41:47;;;;;;;7.70;1.50;;;11.10;99.90;;;;;;5490891;26;20009;-44
2024/04/20 09:44:15;;;;;;;7.68;0.73;;;10.70;99.90;;;;;;5490382;26;20004;-46
2024/04/20 09:46:45;;;;;;;1.75;0.32;;;10.50;99.90;;;;;;5458290;26;20016;-39
2024/04/20 09:49:14;;;;;;;8.30;0.68;;;10.00;99.90;;;;;;5452313;26;20493;-43
2024/04/20 09:51:58;;;;;;;4.32;0.40;;;9.40;99.90;;;;;;5454044;26;20007;-38
2024/04/20 09:54:31;;;;;;;3.10;0.45;;;9.10;99.90;;;;;;5454071;26;20439;-41
2024/04/20 09:56:58;;;;;;;2.78;0.30;;;8.90;99.90;;;;;;5422922;26;20011;-38
2024/04/20 09:59:24;;;;;;;3.63;0.30;;;8.70;99.90;;;;;;5476177;26;20470;-40
2024/04/20 10:01:51;;;;;;;2.88;1.08;;;8.90;99.90;;;;;;5489986;26;20535;-41
2024/04/20 10:04:19;;;;;;;3.20;0.57;;;9.60;99.90;;;;;;5490314;26;20475;-42
2024/04/20 10:06:46;;;;;;;5.25;1.35;;;10.20;99.90;;;;;;5490733;26;20096;-44
2024/04/20 10:09:14;;;;;;;4.90;0.73;;;10.50;99.90;;;;;;5458377;26;20012;-42
2024/04/20 10:11:42;;;;;;;5.50;0.93;;;11.00;99.90;;;;;;5490764;26;20005;-38
2024/04/20 10:14:08;;;;;;;3.42;1.10;;;11.40;99.90;;;;;;5490189;26;20002;-42
2024/04/20 10:16:34;;;;;;;2.55;1.02;;;11.60;99.90;;;;;;5480148;26;20091;-40
2024/04/20 10:19:00;;;;;;;7.13;0.98;;;11.70;99.90;;;;;;5499262;26;20001;-41
2024/04/20 10:21:25;;;;;;;8.35;0.98;;;12.10;99.90;;;;;;5490163;26;19998;-39
2024/04/20 10:23:51;;;;;;;6.38;1.20;;;12.20;99.90;;;;;;5474853;26;20005;-44
2024/04/20 10:26:30;;;;;;;5.50;0.75;;;11.00;99.90;;;;;;5478221;26;20418;-41
2024/04/20 10:29:09;;;;;;;1.65;1.00;;;9.90;99.90;;;;;;5490246;26;20001;-40
2024/04/20 10:31:36;;;;;;;4.85;1.17;;;9.30;99.90;;;;;;5490015;26;20451;-40
2024/04/20 10:34:02;;;;;;;5.72;0.70;;;9.10;99.90;;;;;;5487203;26;20001;-40
2024/04/20 10:36:29;;;;;;;10.23;0.68;;;8.90;99.90;;;;;;5491923;26;20359;-39
2024/04/20 10:39:07;;;;;;;7.25;1.05;;;8.80;99.90;;;;;;5489875;26;20481;-39
2024/04/20 10:41:40;;;;;;;5.07;0.95;;;8.80;99.90;;;;;;5469535;26;19995;-44
2024/04/20 10:44:15;;;;;;;3.58;0.77;;;8.60;99.90;;;;;;5453227;26;20464;-54
2024/04/20 10:46:58;;;;;;;4.93;0.73;;;8.40;99.90;;;;;;5453362;26;20007;-53
2024/04/20 10:49:26;;;;;;;4.60;1.13;;;8.50;99.90;;;;;;5460064;26;20008;-53
2024/04/20 10:51:53;;;;;;;;;;;8.60;99.90;;;;;;5489486;26;20338;-55
2024/04/20 10:54:19;;;;;;;8.27;0.77;;;8.90;99.90;;;;;;5489773;26;19984;-55
2024/04/20 10:56:45;;;;;;;3.83;0.60;;;8.90;99.90;;;;;;5489635;26;19998;-55
2024/04/20 10:59:11;;;;;;;6.28;0.95;;;8.80;99.90;;;;;;5489639;26;20449;-53
2024/04/20 11:01:39;;;;;;;1.52;0.50;;;8.60;99.90;;;;;;5489788;26;20024;-57
2024/04/20 11:04:06;;;;;;;5.40;0.40;;;8.70;99.90;;;;;;5489334;26;19994;-72
2024/04/20 11:06:32;;;;;;;3.08;0.95;;;9.00;99.90;;;;;;5490564;26;20447;-57
2024/04/20 11:08:58;;;;;;;5.53;0.73;;;9.50;99.90;;;;;;5453429;26;19991;-54
2024/04/20 11:11:23;;;;;;;7.72;1.65;;;9.90;99.90;;;;;;5452940;26;19991;-54
2024/04/20 11:13:59;;;;;;;7.15;1.60;;;9.70;99.90;;;;;;5452992;26;19995;-56
2024/04/20 11:16:27;;;;;;;2.30;0.95;;;9.40;99.90;;;;;;5452846;26;20009;-55
2024/04/20 11:18:52;;;;;;;11.40;1.52;;;9.20;99.90;;;;;;5452793;26;20051;-55
2024/04/20 11:21:19;;;;;;;8.00;1.10;;;9.20;99.90;;;;;;5483088;26;19998;-56
2024/04/20 11:23:45;;;;;;;9.05;1.42;;;9.10;99.90;;;;;;5487369;26;20009;-54
2024/04/20 11:26:11;;;;;;;10.23;1.02;;;9.20;99.90;;;;;;5488119;26;20443;-55
2024/04/20 11:28:37;;;;;;;8.82;1.35;;;9.40;99.90;;;;;;5489505;26;20005;-54
2024/04/20 11:31:04;;;;;;;8.43;1.30;;;9.80;99.90;;;;;;5462941;26;20027;-55
2024/04/20 11:33:31;;;;;;;7.65;1.42;;;10.30;99.90;;;;;;5491303;26;20447;-54
2024/04/20 11:35:56;;;;;;;7.82;1.33;;;10.80;99.90;;;;;;5489077;26;20394;-55
2024/04/20 11:38:22;;;;;;;11.40;1.27;;;11.30;99.90;;;;;;5489131;26;20010;-53
2024/04/20 11:40:49;;;;;;;4.57;1.00;;;11.40;99.90;;;;;;5490413;26;20359;-54
2024/04/20 11:43:20;;;;;;;4.57;0.88;;;11.20;99.90;;;;;;5489166;26;19994;-53
2024/04/20 11:45:46;;;;;;;12.40;1.77;;;10.70;99.90;;;;;;5488914;26;20451;-55
2024/04/20 11:48:11;;;;;;;6.70;1.38;;;10.30;99.90;;;;;;5488941;26;20009;-54
2024/04/20 11:50:40;;;;;;;13.15;1.30;;;10.20;99.90;;;;;;5488830;26;20463;-53
2024/04/20 11:55:49;;;;;;;9.13;1.23;;;10.20;99.90;;;;;;5488743;26;20038;-41
2024/04/20 11:58:15;;;;;;;8.75;1.33;;;10.50;99.90;;;;;;5489719;26;20451;-44
2024/04/20 12:00:41;;;;;;;13.10;1.90;;;10.80;99.90;;;;;;5488246;26;20531;-41
2024/04/20 12:03:07;;;;;;;3.70;1.00;;;11.20;99.90;;;;;;5487401;26;19998;-43
2024/04/20 12:05:32;;;;;;;5.85;0.75;;;11.40;99.90;;;;;;5488915;26;20002;-43
2024/04/20 12:07:58;;;;;;;5.82;1.40;;;11.70;99.90;;;;;;5488387;26;20035;-58
2024/04/20 12:10:25;;;;;;;2.72;0.93;;;11.70;99.90;;;;;;5488185;26;19998;-44
2024/04/20 12:12:51;;;;;;;5.65;1.17;;;11.40;99.90;;;;;;5488252;26;20399;-68
2024/04/20 12:15:17;;;;;;;10.93;1.23;;;10.90;99.90;;;;;;5495325;26;20026;-43
2024/04/20 12:17:42;;;;;;;10.15;1.05;;;10.80;99.90;;;;;;5488573;26;20005;-44
2024/04/20 12:20:11;;;;;;;3.25;1.23;;;10.90;99.90;;;;;;5487565;26;20065;-45
2024/04/20 12:22:38;;;;;;;4.13;0.68;;;11.30;99.90;;;;;;5487912;26;20074;-47
2024/04/20 12:25:04;;;;;;;4.38;0.70;;;11.10;99.90;;;;;;5488492;26;20055;-40
2024/04/20 12:27:30;;;;;;;3.60;0.82;;;10.80;99.90;;;;;;5488466;26;19995;-40
2024/04/20 12:29:56;;;;;;;2.80;0.82;;;10.80;99.90;;;;;;5488330;26;20034;-40
2024/04/20 12:32:22;;;;;;;8.55;1.23;;;11.10;99.90;;;;;;5489027;26;20002;-44
2024/04/20 12:34:48;;;;;;;2.67;1.35;;;11.20;99.90;;;;;;5453884;26;20009;-41
2024/04/20 12:37:14;;;;;;;2.95;0.68;;;11.30;99.90;;;;;;5487195;26;20476;-43
2024/04/20 12:39:39;;;;;;;10.40;1.98;;;11.20;99.90;;;;;;5478028;26;20003;-42
2024/04/20 12:42:05;;;;;;;4.68;0.43;;;11.50;99.90;;;;;;5478882;26;20006;-43
2024/04/20 12:44:34;;;;;;;5.35;0.75;;;11.50;99.90;;;;;;5483073;26;19998;-43
2024/04/20 12:47:00;;;;;;;6.47;0.75;;;11.40;99.90;;;;;;5486937;26;20404;-40
2024/04/20 12:49:26;;;;;;;4.70;1.30;;;11.30;99.90;;;;;;5448970;26;20011;-44
2024/04/20 12:51:51;;;;;;;2.42;0.52;;;11.00;99.90;;;;;;5482264;26;19994;-52